Terminal Aerodrome Forecast
Issued by NWS Caribou, ME

Home | Current Version | Previous Version | Text Only | Print | Product List | Glossary On
Versions: 1 2 3 4 5 6 7 8 9 10 11 12 13 14
000
FTUS41 KCAR 232320
TAFBGR
TAF
KBGR 232320Z 2400/2424 06005KT P6SM OVC035
     FM240900 14004KT P6SM OVC030
     FM241200 14004KT 5SM -RA BR OVC015
     FM241500 14009KT 2SM -RA BR OVC004=

USA.gov is the U.S. government's official web portal to all federal, state and local government web resources and services.